sensor_id;sensor_type;location;lat;lon;timestamp;P1;durP1;ratioP1;P2;durP2;ratioP2
19889;SDS011;10107;51.198;6.824;2024-02-26T00:00:21;1.30;;;1.20;;
19889;SDS011;10107;51.198;6.824;2024-02-26T00:04:23;2.25;;;1.33;;
19889;SDS011;10107;51.198;6.824;2024-02-26T00:08:25;1.88;;;1.30;;
19889;SDS011;10107;51.198;6.824;2024-02-26T00:12:28;1.65;;;1.20;;
19889;SDS011;10107;51.198;6.824;2024-02-26T00:16:30;1.25;;;1.00;;
19889;SDS011;10107;51.198;6.824;2024-02-26T00:20:31;2.28;;;1.20;;
19889;SDS011;10107;51.198;6.824;2024-02-26T00:24:33;1.23;;;0.90;;
19889;SDS011;10107;51.198;6.824;2024-02-26T00:28:36;1.20;;;1.08;;
19889;SDS011;10107;51.198;6.824;2024-02-26T00:32:38;1.33;;;1.05;;
19889;SDS011;10107;51.198;6.824;2024-02-26T00:36:39;1.00;;;0.90;;
19889;SDS011;10107;51.198;6.824;2024-02-26T00:40:41;1.17;;;1.08;;
19889;SDS011;10107;51.198;6.824;2024-02-26T00:44:45;1.65;;;1.27;;
19889;SDS011;10107;51.198;6.824;2024-02-26T00:48:46;1.40;;;1.00;;
19889;SDS011;10107;51.198;6.824;2024-02-26T00:52:48;1.80;;;1.20;;
19889;SDS011;10107;51.198;6.824;2024-02-26T00:56:50;1.73;;;1.02;;
19889;SDS011;10107;51.198;6.824;2024-02-26T01:00:53;1.27;;;1.00;;
19889;SDS011;10107;51.198;6.824;2024-02-26T01:04:55;1.15;;;0.93;;
19889;SDS011;10107;51.198;6.824;2024-02-26T01:08:56;1.05;;;0.98;;
19889;SDS011;10107;51.198;6.824;2024-02-26T01:12:58;1.65;;;1.17;;
19889;SDS011;10107;51.198;6.824;2024-02-26T01:17:01;1.25;;;1.05;;
19889;SDS011;10107;51.198;6.824;2024-02-26T01:21:03;1.00;;;0.90;;
19889;SDS011;10107;51.198;6.824;2024-02-26T01:25:07;1.20;;;1.05;;
19889;SDS011;10107;51.198;6.824;2024-02-26T01:29:09;1.13;;;1.03;;
19889;SDS011;10107;51.198;6.824;2024-02-26T01:33:13;1.20;;;1.05;;
19889;SDS011;10107;51.198;6.824;2024-02-26T01:37:14;1.10;;;1.00;;
19889;SDS011;10107;51.198;6.824;2024-02-26T01:41:16;1.48;;;1.25;;
19889;SDS011;10107;51.198;6.824;2024-02-26T01:45:18;1.75;;;1.00;;
19889;SDS011;10107;51.198;6.824;2024-02-26T01:49:25;1.90;;;1.10;;
19889;SDS011;10107;51.198;6.824;2024-02-26T01:53:27;2.70;;;1.20;;
19889;SDS011;10107;51.198;6.824;2024-02-26T01:57:30;1.77;;;1.13;;
19889;SDS011;10107;51.198;6.824;2024-02-26T02:01:32;2.95;;;1.10;;
19889;SDS011;10107;51.198;6.824;2024-02-26T02:05:36;1.40;;;1.20;;
19889;SDS011;10107;51.198;6.824;2024-02-26T02:09:42;1.67;;;1.30;;
19889;SDS011;10107;51.198;6.824;2024-02-26T02:13:43;1.50;;;1.20;;
19889;SDS011;10107;51.198;6.824;2024-02-26T02:17:45;1.13;;;1.02;;
19889;SDS011;10107;51.198;6.824;2024-02-26T02:21:49;1.23;;;1.00;;
19889;SDS011;10107;51.198;6.824;2024-02-26T02:25:50;1.65;;;0.80;;
19889;SDS011;10107;51.198;6.824;2024-02-26T02:29:52;1.75;;;1.10;;
19889;SDS011;10107;51.198;6.824;2024-02-26T02:33:54;1.73;;;1.15;;
19889;SDS011;10107;51.198;6.824;2024-02-26T02:37:58;1.35;;;1.23;;
19889;SDS011;10107;51.198;6.824;2024-02-26T02:41:59;1.60;;;1.20;;
19889;SDS011;10107;51.198;6.824;2024-02-26T02:46:01;1.63;;;1.17;;
19889;SDS011;10107;51.198;6.824;2024-02-26T02:50:03;1.92;;;1.40;;
19889;SDS011;10107;51.198;6.824;2024-02-26T02:54:07;2.00;;;1.13;;
19889;SDS011;10107;51.198;6.824;2024-02-26T02:58:08;1.42;;;0.95;;
19889;SDS011;10107;51.198;6.824;2024-02-26T03:02:10;2.03;;;1.50;;
19889;SDS011;10107;51.198;6.824;2024-02-26T03:06:12;1.60;;;1.23;;
19889;SDS011;10107;51.198;6.824;2024-02-26T03:10:15;2.90;;;1.42;;
19889;SDS011;10107;51.198;6.824;2024-02-26T03:14:17;1.98;;;1.33;;
19889;SDS011;10107;51.198;6.824;2024-02-26T03:18:18;2.20;;;1.50;;
19889;SDS011;10107;51.198;6.824;2024-02-26T03:22:20;1.40;;;1.17;;
19889;SDS011;10107;51.198;6.824;2024-02-26T03:26:24;2.30;;;1.60;;
19889;SDS011;10107;51.198;6.824;2024-02-26T03:30:25;1.55;;;1.45;;
19889;SDS011;10107;51.198;6.824;2024-02-26T03:34:27;2.80;;;1.77;;
19889;SDS011;10107;51.198;6.824;2024-02-26T03:38:30;1.60;;;1.50;;
19889;SDS011;10107;51.198;6.824;2024-02-26T03:42:33;2.78;;;1.45;;
19889;SDS011;10107;51.198;6.824;2024-02-26T03:46:35;2.78;;;1.70;;
19889;SDS011;10107;51.198;6.824;2024-02-26T03:50:37;2.60;;;1.80;;
19889;SDS011;10107;51.198;6.824;2024-02-26T03:54:39;3.28;;;1.67;;
19889;SDS011;10107;51.198;6.824;2024-02-26T03:58:42;1.85;;;1.70;;
19889;SDS011;10107;51.198;6.824;2024-02-26T04:02:43;1.88;;;1.58;;
19889;SDS011;10107;51.198;6.824;2024-02-26T04:06:45;1.70;;;1.50;;
19889;SDS011;10107;51.198;6.824;2024-02-26T04:10:47;1.60;;;1.50;;
19889;SDS011;10107;51.198;6.824;2024-02-26T04:14:51;2.70;;;1.65;;
19889;SDS011;10107;51.198;6.824;2024-02-26T04:18:52;2.88;;;1.60;;
19889;SDS011;10107;51.198;6.824;2024-02-26T04:22:54;2.15;;;1.77;;
19889;SDS011;10107;51.198;6.824;2024-02-26T04:26:56;2.03;;;1.77;;
19889;SDS011;10107;51.198;6.824;2024-02-26T04:30:59;1.95;;;1.70;;
19889;SDS011;10107;51.198;6.824;2024-02-26T04:35:02;3.35;;;1.80;;
19889;SDS011;10107;51.198;6.824;2024-02-26T04:39:04;3.30;;;1.95;;
19889;SDS011;10107;51.198;6.824;2024-02-26T04:43:06;2.45;;;2.05;;
19889;SDS011;10107;51.198;6.824;2024-02-26T04:47:09;2.83;;;2.17;;
19889;SDS011;10107;51.198;6.824;2024-02-26T04:51:11;2.83;;;1.95;;
19889;SDS011;10107;51.198;6.824;2024-02-26T04:55:13;2.65;;;2.30;;
19889;SDS011;10107;51.198;6.824;2024-02-26T04:59:14;2.35;;;2.13;;
19889;SDS011;10107;51.198;6.824;2024-02-26T05:03:17;3.53;;;2.33;;
19889;SDS011;10107;51.198;6.824;2024-02-26T05:07:19;2.28;;;2.08;;
19889;SDS011;10107;51.198;6.824;2024-02-26T05:11:20;2.13;;;1.92;;
19889;SDS011;10107;51.198;6.824;2024-02-26T05:15:22;2.20;;;2.00;;
19889;SDS011;10107;51.198;6.824;2024-02-26T05:19:25;2.63;;;1.98;;
19889;SDS011;10107;51.198;6.824;2024-02-26T05:23:27;2.60;;;2.00;;
19889;SDS011;10107;51.198;6.824;2024-02-26T05:27:28;2.05;;;1.95;;
19889;SDS011;10107;51.198;6.824;2024-02-26T05:31:30;4.95;;;2.30;;
19889;SDS011;10107;51.198;6.824;2024-02-26T05:35:33;2.30;;;2.10;;
19889;SDS011;10107;51.198;6.824;2024-02-26T05:39:35;3.42;;;2.38;;
19889;SDS011;10107;51.198;6.824;2024-02-26T05:48:59;3.25;;;2.47;;
19889;SDS011;10107;51.198;6.824;2024-02-26T05:53:02;2.97;;;2.50;;
19889;SDS011;10107;51.198;6.824;2024-02-26T05:57:04;5.15;;;2.50;;
19889;SDS011;10107;51.198;6.824;2024-02-26T06:01:05;3.35;;;3.05;;
19889;SDS011;10107;51.198;6.824;2024-02-26T06:05:07;3.60;;;2.80;;
19889;SDS011;10107;51.198;6.824;2024-02-26T06:09:11;5.40;;;2.92;;
19889;SDS011;10107;51.198;6.824;2024-02-26T06:13:12;4.07;;;2.90;;
19889;SDS011;10107;51.198;6.824;2024-02-26T06:17:14;4.32;;;3.00;;
19889;SDS011;10107;51.198;6.824;2024-02-26T06:21:16;3.35;;;3.05;;
19889;SDS011;10107;51.198;6.824;2024-02-26T06:25:19;5.03;;;3.30;;
19889;SDS011;10107;51.198;6.824;2024-02-26T06:29:21;4.57;;;3.20;;
19889;SDS011;10107;51.198;6.824;2024-02-26T06:33:22;4.35;;;3.00;;
19889;SDS011;10107;51.198;6.824;2024-02-26T06:37:24;4.43;;;3.33;;
19889;SDS011;10107;51.198;6.824;2024-02-26T06:41:27;4.45;;;3.47;;
19889;SDS011;10107;51.198;6.824;2024-02-26T06:45:30;4.40;;;3.25;;
19889;SDS011;10107;51.198;6.824;2024-02-26T06:49:31;6.68;;;3.30;;
19889;SDS011;10107;51.198;6.824;2024-02-26T06:53:33;5.55;;;3.60;;
19889;SDS011;10107;51.198;6.824;2024-02-26T06:57:36;5.07;;;3.55;;
19889;SDS011;10107;51.198;6.824;2024-02-26T07:01:40;3.85;;;2.65;;
19889;SDS011;10107;51.198;6.824;2024-02-26T07:05:43;6.97;;;3.70;;
19889;SDS011;10107;51.198;6.824;2024-02-26T07:09:45;4.60;;;3.33;;
19889;SDS011;10107;51.198;6.824;2024-02-26T07:13:48;5.65;;;3.90;;
19889;SDS011;10107;51.198;6.824;2024-02-26T07:17:50;5.97;;;4.30;;
19889;SDS011;10107;51.198;6.824;2024-02-26T07:21:51;6.88;;;4.68;;
19889;SDS011;10107;51.198;6.824;2024-02-26T07:25:53;5.70;;;4.00;;
19889;SDS011;10107;51.198;6.824;2024-02-26T07:29:56;6.93;;;4.50;;
19889;SDS011;10107;51.198;6.824;2024-02-26T07:33:57;5.47;;;4.32;;
19889;SDS011;10107;51.198;6.824;2024-02-26T07:37:59;6.88;;;5.07;;
19889;SDS011;10107;51.198;6.824;2024-02-26T07:42:01;7.43;;;4.72;;
19889;SDS011;10107;51.198;6.824;2024-02-26T07:46:04;5.28;;;3.83;;
19889;SDS011;10107;51.198;6.824;2024-02-26T07:50:06;4.10;;;3.22;;
19889;SDS011;10107;51.198;6.824;2024-02-26T07:54:08;6.55;;;3.70;;
19889;SDS011;10107;51.198;6.824;2024-02-26T07:58:10;5.68;;;4.22;;
19889;SDS011;10107;51.198;6.824;2024-02-26T08:02:13;6.32;;;4.10;;
19889;SDS011;10107;51.198;6.824;2024-02-26T08:06:16;6.43;;;4.00;;
19889;SDS011;10107;51.198;6.824;2024-02-26T08:10:17;2.75;;;2.47;;
19889;SDS011;10107;51.198;6.824;2024-02-26T08:14:19;4.57;;;3.40;;
19889;SDS011;10107;51.198;6.824;2024-02-26T08:18:22;4.88;;;3.25;;
19889;SDS011;10107;51.198;6.824;2024-02-26T08:22:24;5.28;;;3.38;;
19889;SDS011;10107;51.198;6.824;2024-02-26T08:26:26;5.15;;;3.30;;
19889;SDS011;10107;51.198;6.824;2024-02-26T08:30:28;6.00;;;3.20;;
19889;SDS011;10107;51.198;6.824;2024-02-26T08:34:31;4.88;;;2.70;;
19889;SDS011;10107;51.198;6.824;2024-02-26T08:38:32;2.88;;;2.10;;
19889;SDS011;10107;51.198;6.824;2024-02-26T08:42:34;3.33;;;2.70;;
19889;SDS011;10107;51.198;6.824;2024-02-26T08:46:36;4.00;;;2.70;;
19889;SDS011;10107;51.198;6.824;2024-02-26T08:50:40;4.32;;;2.80;;
19889;SDS011;10107;51.198;6.824;2024-02-26T08:54:41;4.00;;;2.40;;
19889;SDS011;10107;51.198;6.824;2024-02-26T08:58:43;3.65;;;2.58;;
19889;SDS011;10107;51.198;6.824;2024-02-26T09:02:46;2.40;;;1.90;;
19889;SDS011;10107;51.198;6.824;2024-02-26T09:06:50;4.87;;;2.77;;
19889;SDS011;10107;51.198;6.824;2024-02-26T09:10:52;4.07;;;2.78;;
19889;SDS011;10107;51.198;6.824;2024-02-26T09:14:54;3.35;;;2.88;;
19889;SDS011;10107;51.198;6.824;2024-02-26T09:18:56;5.43;;;3.15;;
19889;SDS011;10107;51.198;6.824;2024-02-26T09:22:59;3.45;;;2.60;;
19889;SDS011;10107;51.198;6.824;2024-02-26T09:27:01;5.75;;;3.15;;
19889;SDS011;10107;51.198;6.824;2024-02-26T09:31:03;3.55;;;2.45;;
19889;SDS011;10107;51.198;6.824;2024-02-26T09:35:05;4.32;;;2.72;;
19889;SDS011;10107;51.198;6.824;2024-02-26T09:39:08;3.60;;;2.80;;
19889;SDS011;10107;51.198;6.824;2024-02-26T09:43:13;4.50;;;2.85;;
19889;SDS011;10107;51.198;6.824;2024-02-26T09:47:16;3.70;;;3.03;;
19889;SDS011;10107;51.198;6.824;2024-02-26T09:51:20;4.38;;;2.83;;
19889;SDS011;10107;51.198;6.824;2024-02-26T09:55:26;4.72;;;2.97;;
19889;SDS011;10107;51.198;6.824;2024-02-26T09:59:28;6.93;;;3.17;;
19889;SDS011;10107;51.198;6.824;2024-02-26T10:03:34;4.10;;;2.83;;
19889;SDS011;10107;51.198;6.824;2024-02-26T10:07:40;3.75;;;2.70;;
19889;SDS011;10107;51.198;6.824;2024-02-26T10:11:46;5.57;;;2.83;;
19889;SDS011;10107;51.198;6.824;2024-02-26T10:15:50;4.50;;;3.33;;
19889;SDS011;10107;51.198;6.824;2024-02-26T10:19:52;4.35;;;2.88;;
19889;SDS011;10107;51.198;6.824;2024-02-26T10:23:56;4.18;;;2.90;;
19889;SDS011;10107;51.198;6.824;2024-02-26T10:28:00;6.40;;;3.10;;
19889;SDS011;10107;51.198;6.824;2024-02-26T10:32:03;4.13;;;2.75;;
19889;SDS011;10107;51.198;6.824;2024-02-26T10:36:06;4.53;;;2.88;;
19889;SDS011;10107;51.198;6.824;2024-02-26T10:40:09;4.93;;;3.58;;
19889;SDS011;10107;51.198;6.824;2024-02-26T10:44:13;4.20;;;2.95;;
19889;SDS011;10107;51.198;6.824;2024-02-26T10:48:15;5.10;;;3.35;;
19889;SDS011;10107;51.198;6.824;2024-02-26T10:52:18;5.10;;;3.55;;
19889;SDS011;10107;51.198;6.824;2024-02-26T10:56:20;5.53;;;3.67;;
19889;SDS011;10107;51.198;6.824;2024-02-26T11:00:27;4.13;;;3.22;;
19889;SDS011;10107;51.198;6.824;2024-02-26T11:04:31;5.22;;;3.58;;
19889;SDS011;10107;51.198;6.824;2024-02-26T11:08:34;4.03;;;2.58;;
19889;SDS011;10107;51.198;6.824;2024-02-26T11:12:36;5.65;;;3.58;;
19889;SDS011;10107;51.198;6.824;2024-02-26T11:16:42;5.75;;;3.55;;
19889;SDS011;10107;51.198;6.824;2024-02-26T11:20:44;6.10;;;4.00;;
19889;SDS011;10107;51.198;6.824;2024-02-26T11:24:48;4.28;;;3.40;;
19889;SDS011;10107;51.198;6.824;2024-02-26T11:28:50;4.30;;;3.45;;
19889;SDS011;10107;51.198;6.824;2024-02-26T11:32:54;5.87;;;2.83;;
19889;SDS011;10107;51.198;6.824;2024-02-26T11:36:56;5.25;;;3.58;;
19889;SDS011;10107;51.198;6.824;2024-02-26T11:40:58;4.53;;;3.53;;
19889;SDS011;10107;51.198;6.824;2024-02-26T11:45:00;5.32;;;3.70;;
19889;SDS011;10107;51.198;6.824;2024-02-26T11:53:32;5.95;;;3.97;;
19889;SDS011;10107;51.198;6.824;2024-02-26T11:57:37;4.23;;;3.30;;
19889;SDS011;10107;51.198;6.824;2024-02-26T12:01:41;5.65;;;4.53;;
19889;SDS011;10107;51.198;6.824;2024-02-26T12:05:45;5.82;;;4.45;;
19889;SDS011;10107;51.198;6.824;2024-02-26T12:09:47;7.40;;;4.60;;
19889;SDS011;10107;51.198;6.824;2024-02-26T12:13:49;6.97;;;5.20;;
19889;SDS011;10107;51.198;6.824;2024-02-26T12:17:51;7.93;;;5.22;;
19889;SDS011;10107;51.198;6.824;2024-02-26T12:21:56;6.88;;;5.13;;
19889;SDS011;10107;51.198;6.824;2024-02-26T12:25:58;5.88;;;3.78;;
19889;SDS011;10107;51.198;6.824;2024-02-26T12:30:00;8.63;;;5.30;;
19889;SDS011;10107;51.198;6.824;2024-02-26T12:34:03;9.98;;;5.70;;
19889;SDS011;10107;51.198;6.824;2024-02-26T12:38:07;7.72;;;6.88;;
19889;SDS011;10107;51.198;6.824;2024-02-26T12:42:09;8.90;;;6.22;;
19889;SDS011;10107;51.198;6.824;2024-02-26T12:46:11;9.55;;;6.53;;
19889;SDS011;10107;51.198;6.824;2024-02-26T12:50:13;8.23;;;6.10;;
19889;SDS011;10107;51.198;6.824;2024-02-26T12:54:16;11.57;;;7.63;;
19889;SDS011;10107;51.198;6.824;2024-02-26T12:58:18;11.60;;;7.40;;
19889;SDS011;10107;51.198;6.824;2024-02-26T13:02:20;10.73;;;7.13;;
19889;SDS011;10107;51.198;6.824;2024-02-26T13:06:22;10.63;;;6.85;;
19889;SDS011;10107;51.198;6.824;2024-02-26T13:10:25;11.70;;;7.85;;
19889;SDS011;10107;51.198;6.824;2024-02-26T13:14:28;10.52;;;7.20;;
19889;SDS011;10107;51.198;6.824;2024-02-26T13:18:31;8.98;;;6.53;;
19889;SDS011;10107;51.198;6.824;2024-02-26T13:22:33;10.38;;;7.43;;
19889;SDS011;10107;51.198;6.824;2024-02-26T13:26:36;11.00;;;7.82;;
19889;SDS011;10107;51.198;6.824;2024-02-26T13:36:01;10.95;;;7.13;;
19889;SDS011;10107;51.198;6.824;2024-02-26T13:40:04;12.27;;;8.05;;
19889;SDS011;10107;51.198;6.824;2024-02-26T13:44:08;12.77;;;8.35;;
19889;SDS011;10107;51.198;6.824;2024-02-26T13:48:10;11.90;;;7.80;;
19889;SDS011;10107;51.198;6.824;2024-02-26T13:52:13;11.77;;;8.45;;
19889;SDS011;10107;51.198;6.824;2024-02-26T13:56:15;12.73;;;8.77;;
19889;SDS011;10107;51.198;6.824;2024-02-26T14:00:18;14.93;;;9.02;;
19889;SDS011;10107;51.198;6.824;2024-02-26T14:04:20;10.52;;;7.95;;
19889;SDS011;10107;51.198;6.824;2024-02-26T14:08:22;12.57;;;8.82;;
19889;SDS011;10107;51.198;6.824;2024-02-26T14:12:24;12.40;;;8.25;;
19889;SDS011;10107;51.198;6.824;2024-02-26T14:16:27;11.32;;;8.30;;
19889;SDS011;10107;51.198;6.824;2024-02-26T14:20:29;18.70;;;12.20;;
19889;SDS011;10107;51.198;6.824;2024-02-26T14:24:30;10.35;;;8.02;;
19889;SDS011;10107;51.198;6.824;2024-02-26T14:28:33;10.00;;;7.50;;
19889;SDS011;10107;51.198;6.824;2024-02-26T14:32:36;9.65;;;7.00;;
19889;SDS011;10107;51.198;6.824;2024-02-26T14:36:38;6.75;;;5.20;;
19889;SDS011;10107;51.198;6.824;2024-02-26T14:40:39;10.98;;;7.65;;
19889;SDS011;10107;51.198;6.824;2024-02-26T14:44:41;10.57;;;7.40;;
19889;SDS011;10107;51.198;6.824;2024-02-26T14:48:44;11.20;;;7.60;;
19889;SDS011;10107;51.198;6.824;2024-02-26T14:52:46;11.80;;;7.72;;
19889;SDS011;10107;51.198;6.824;2024-02-26T14:56:47;17.00;;;9.48;;
19889;SDS011;10107;51.198;6.824;2024-02-26T15:00:49;18.33;;;9.55;;
19889;SDS011;10107;51.198;6.824;2024-02-26T15:04:52;10.73;;;8.20;;
19889;SDS011;10107;51.198;6.824;2024-02-26T15:08:54;11.52;;;7.28;;
19889;SDS011;10107;51.198;6.824;2024-02-26T15:12:57;7.78;;;5.13;;
19889;SDS011;10107;51.198;6.824;2024-02-26T15:16:58;8.82;;;6.78;;
19889;SDS011;10107;51.198;6.824;2024-02-26T15:21:02;9.55;;;6.50;;
19889;SDS011;10107;51.198;6.824;2024-02-26T15:29:06;9.30;;;6.18;;
19889;SDS011;10107;51.198;6.824;2024-02-26T15:33:08;10.60;;;7.00;;
19889;SDS011;10107;51.198;6.824;2024-02-26T15:37:13;10.40;;;6.55;;
19889;SDS011;10107;51.198;6.824;2024-02-26T15:41:15;8.98;;;6.43;;
19889;SDS011;10107;51.198;6.824;2024-02-26T15:45:17;9.73;;;6.72;;
19889;SDS011;10107;51.198;6.824;2024-02-26T15:49:19;9.20;;;6.18;;
19889;SDS011;10107;51.198;6.824;2024-02-26T15:53:22;9.25;;;6.40;;
19889;SDS011;10107;51.198;6.824;2024-02-26T15:57:23;10.20;;;6.13;;
19889;SDS011;10107;51.198;6.824;2024-02-26T16:01:25;8.00;;;5.93;;
19889;SDS011;10107;51.198;6.824;2024-02-26T16:05:27;8.52;;;6.20;;
19889;SDS011;10107;51.198;6.824;2024-02-26T16:09:29;7.55;;;5.93;;
19889;SDS011;10107;51.198;6.824;2024-02-26T16:13:31;7.10;;;5.30;;
19889;SDS011;10107;51.198;6.824;2024-02-26T16:17:33;8.48;;;5.20;;
19889;SDS011;10107;51.198;6.824;2024-02-26T16:21:37;7.70;;;5.22;;
19889;SDS011;10107;51.198;6.824;2024-02-26T16:25:41;6.85;;;5.10;;
19889;SDS011;10107;51.198;6.824;2024-02-26T16:29:43;6.40;;;5.13;;
19889;SDS011;10107;51.198;6.824;2024-02-26T16:33:45;5.25;;;4.18;;
19889;SDS011;10107;51.198;6.824;2024-02-26T16:37:47;6.28;;;4.43;;
19889;SDS011;10107;51.198;6.824;2024-02-26T16:41:50;5.47;;;4.22;;
19889;SDS011;10107;51.198;6.824;2024-02-26T16:45:52;7.10;;;4.25;;
19889;SDS011;10107;51.198;6.824;2024-02-26T16:49:54;4.90;;;3.72;;
19889;SDS011;10107;51.198;6.824;2024-02-26T16:53:55;8.88;;;4.95;;
19889;SDS011;10107;51.198;6.824;2024-02-26T16:57:58;6.40;;;4.15;;
19889;SDS011;10107;51.198;6.824;2024-02-26T17:02:00;5.32;;;3.92;;
19889;SDS011;10107;51.198;6.824;2024-02-26T17:06:02;4.90;;;4.03;;
19889;SDS011;10107;51.198;6.824;2024-02-26T17:10:05;4.93;;;3.60;;
19889;SDS011;10107;51.198;6.824;2024-02-26T17:14:08;3.53;;;2.80;;
19889;SDS011;10107;51.198;6.824;2024-02-26T17:18:10;5.20;;;3.80;;
19889;SDS011;10107;51.198;6.824;2024-02-26T17:22:13;5.13;;;3.85;;
19889;SDS011;10107;51.198;6.824;2024-02-26T17:26:18;7.35;;;4.30;;
19889;SDS011;10107;51.198;6.824;2024-02-26T17:30:21;4.85;;;3.53;;
19889;SDS011;10107;51.198;6.824;2024-02-26T17:34:23;7.47;;;4.43;;
19889;SDS011;10107;51.198;6.824;2024-02-26T17:38:25;8.70;;;5.13;;
19889;SDS011;10107;51.198;6.824;2024-02-26T17:42:26;6.25;;;4.93;;
19889;SDS011;10107;51.198;6.824;2024-02-26T17:46:30;7.97;;;4.80;;
19889;SDS011;10107;51.198;6.824;2024-02-26T17:50:31;6.82;;;4.60;;
19889;SDS011;10107;51.198;6.824;2024-02-26T17:54:33;5.55;;;4.32;;
19889;SDS011;10107;51.198;6.824;2024-02-26T17:58:34;5.30;;;4.05;;
19889;SDS011;10107;51.198;6.824;2024-02-26T18:02:42;4.68;;;4.10;;
19889;SDS011;10107;51.198;6.824;2024-02-26T18:06:43;4.95;;;4.07;;
19889;SDS011;10107;51.198;6.824;2024-02-26T18:10:45;5.57;;;4.53;;
19889;SDS011;10107;51.198;6.824;2024-02-26T18:14:47;6.68;;;4.60;;
19889;SDS011;10107;51.198;6.824;2024-02-26T18:18:50;6.53;;;4.57;;
19889;SDS011;10107;51.198;6.824;2024-02-26T18:22:52;3.85;;;3.42;;
19889;SDS011;10107;51.198;6.824;2024-02-26T18:26:53;4.90;;;4.10;;
19889;SDS011;10107;51.198;6.824;2024-02-26T18:35:21;4.55;;;4.05;;
19889;SDS011;10107;51.198;6.824;2024-02-26T18:39:23;6.82;;;4.43;;
19889;SDS011;10107;51.198;6.824;2024-02-26T18:43:25;5.35;;;3.95;;
19889;SDS011;10107;51.198;6.824;2024-02-26T18:47:26;5.22;;;3.97;;
19889;SDS011;10107;51.198;6.824;2024-02-26T18:51:29;4.43;;;3.90;;
19889;SDS011;10107;51.198;6.824;2024-02-26T18:55:31;5.60;;;3.88;;
19889;SDS011;10107;51.198;6.824;2024-02-26T18:59:33;5.13;;;3.72;;
19889;SDS011;10107;51.198;6.824;2024-02-26T19:03:35;4.57;;;3.80;;
19889;SDS011;10107;51.198;6.824;2024-02-26T19:07:38;4.07;;;3.65;;
19889;SDS011;10107;51.198;6.824;2024-02-26T19:11:44;4.95;;;3.80;;
19889;SDS011;10107;51.198;6.824;2024-02-26T19:15:46;4.60;;;3.95;;
19889;SDS011;10107;51.198;6.824;2024-02-26T19:19:48;5.82;;;4.50;;
19889;SDS011;10107;51.198;6.824;2024-02-26T19:23:51;4.63;;;3.90;;
19889;SDS011;10107;51.198;6.824;2024-02-26T19:27:55;6.22;;;4.18;;
19889;SDS011;10107;51.198;6.824;2024-02-26T19:31:57;5.35;;;4.15;;
19889;SDS011;10107;51.198;6.824;2024-02-26T19:35:58;5.50;;;4.22;;
19889;SDS011;10107;51.198;6.824;2024-02-26T19:40:02;4.68;;;4.20;;
19889;SDS011;10107;51.198;6.824;2024-02-26T19:44:04;5.80;;;4.03;;
19889;SDS011;10107;51.198;6.824;2024-02-26T19:48:06;5.93;;;4.50;;
19889;SDS011;10107;51.198;6.824;2024-02-26T19:52:08;7.70;;;5.47;;
19889;SDS011;10107;51.198;6.824;2024-02-26T19:56:12;7.10;;;5.55;;
19889;SDS011;10107;51.198;6.824;2024-02-26T20:00:14;6.70;;;5.32;;
19889;SDS011;10107;51.198;6.824;2024-02-26T20:04:16;9.05;;;7.13;;
19889;SDS011;10107;51.198;6.824;2024-02-26T20:08:17;9.70;;;7.40;;
19889;SDS011;10107;51.198;6.824;2024-02-26T20:12:21;10.00;;;7.95;;
19889;SDS011;10107;51.198;6.824;2024-02-26T20:16:23;11.93;;;8.55;;
19889;SDS011;10107;51.198;6.824;2024-02-26T20:20:25;11.82;;;8.00;;
19889;SDS011;10107;51.198;6.824;2024-02-26T20:24:29;11.75;;;8.35;;
19889;SDS011;10107;51.198;6.824;2024-02-26T20:28:32;12.20;;;8.68;;
19889;SDS011;10107;51.198;6.824;2024-02-26T20:32:36;13.20;;;9.45;;
19889;SDS011;10107;51.198;6.824;2024-02-26T20:36:37;13.10;;;8.98;;
19889;SDS011;10107;51.198;6.824;2024-02-26T20:40:39;13.65;;;9.65;;
19889;SDS011;10107;51.198;6.824;2024-02-26T20:44:43;13.57;;;9.73;;
19889;SDS011;10107;51.198;6.824;2024-02-26T20:48:45;13.95;;;9.43;;
19889;SDS011;10107;51.198;6.824;2024-02-26T20:52:47;14.52;;;10.07;;
19889;SDS011;10107;51.198;6.824;2024-02-26T20:56:48;14.82;;;9.88;;
19889;SDS011;10107;51.198;6.824;2024-02-26T21:00:52;14.20;;;9.15;;
19889;SDS011;10107;51.198;6.824;2024-02-26T21:04:55;14.95;;;10.05;;
19889;SDS011;10107;51.198;6.824;2024-02-26T21:08:58;15.02;;;10.30;;
19889;SDS011;10107;51.198;6.824;2024-02-26T21:13:00;17.83;;;11.27;;
19889;SDS011;10107;51.198;6.824;2024-02-26T21:17:03;14.68;;;9.82;;
19889;SDS011;10107;51.198;6.824;2024-02-26T21:21:05;14.23;;;10.38;;
19889;SDS011;10107;51.198;6.824;2024-02-26T21:25:07;16.10;;;10.23;;
19889;SDS011;10107;51.198;6.824;2024-02-26T21:29:10;18.30;;;11.90;;
19889;SDS011;10107;51.198;6.824;2024-02-26T21:33:14;13.65;;;9.43;;
19889;SDS011;10107;51.198;6.824;2024-02-26T21:37:15;15.57;;;10.98;;
19889;SDS011;10107;51.198;6.824;2024-02-26T21:41:17;16.15;;;11.02;;
19889;SDS011;10107;51.198;6.824;2024-02-26T21:45:20;17.45;;;11.98;;
19889;SDS011;10107;51.198;6.824;2024-02-26T21:49:23;15.15;;;10.70;;
19889;SDS011;10107;51.198;6.824;2024-02-26T21:53:25;18.17;;;11.40;;
19889;SDS011;10107;51.198;6.824;2024-02-26T21:57:27;18.58;;;12.32;;
19889;SDS011;10107;51.198;6.824;2024-02-26T22:01:28;18.70;;;11.88;;
19889;SDS011;10107;51.198;6.824;2024-02-26T22:05:31;19.17;;;12.65;;
19889;SDS011;10107;51.198;6.824;2024-02-26T22:09:33;22.33;;;13.07;;
19889;SDS011;10107;51.198;6.824;2024-02-26T22:13:35;21.38;;;13.18;;
19889;SDS011;10107;51.198;6.824;2024-02-26T22:17:37;20.40;;;13.70;;
19889;SDS011;10107;51.198;6.824;2024-02-26T22:21:42;26.58;;;14.93;;
19889;SDS011;10107;51.198;6.824;2024-02-26T22:25:45;23.73;;;14.75;;
19889;SDS011;10107;51.198;6.824;2024-02-26T22:29:47;25.20;;;15.50;;
19889;SDS011;10107;51.198;6.824;2024-02-26T22:33:49;24.42;;;15.32;;
19889;SDS011;10107;51.198;6.824;2024-02-26T22:37:52;23.88;;;16.13;;
19889;SDS011;10107;51.198;6.824;2024-02-26T22:41:54;28.33;;;17.67;;
19889;SDS011;10107;51.198;6.824;2024-02-26T22:45:56;25.17;;;16.58;;
19889;SDS011;10107;51.198;6.824;2024-02-26T22:49:58;25.80;;;16.85;;
19889;SDS011;10107;51.198;6.824;2024-02-26T22:54:01;25.75;;;16.63;;
19889;SDS011;10107;51.198;6.824;2024-02-26T22:58:03;30.48;;;18.73;;
19889;SDS011;10107;51.198;6.824;2024-02-26T23:02:05;30.55;;;19.58;;
19889;SDS011;10107;51.198;6.824;2024-02-26T23:06:07;31.67;;;19.87;;
19889;SDS011;10107;51.198;6.824;2024-02-26T23:10:11;34.65;;;21.08;;
19889;SDS011;10107;51.198;6.824;2024-02-26T23:14:13;33.03;;;20.33;;
19889;SDS011;10107;51.198;6.824;2024-02-26T23:18:15;33.53;;;20.63;;
19889;SDS011;10107;51.198;6.824;2024-02-26T23:22:17;32.00;;;20.08;;
19889;SDS011;10107;51.198;6.824;2024-02-26T23:26:20;35.67;;;22.27;;
19889;SDS011;10107;51.198;6.824;2024-02-26T23:30:22;34.45;;;21.77;;
19889;SDS011;10107;51.198;6.824;2024-02-26T23:34:23;36.15;;;21.98;;
19889;SDS011;10107;51.198;6.824;2024-02-26T23:38:26;35.60;;;21.85;;
19889;SDS011;10107;51.198;6.824;2024-02-26T23:42:29;33.92;;;21.33;;
19889;SDS011;10107;51.198;6.824;2024-02-26T23:46:31;27.08;;;16.00;;
19889;SDS011;10107;51.198;6.824;2024-02-26T23:50:33;31.88;;;19.58;;
19889;SDS011;10107;51.198;6.824;2024-02-26T23:54:35;36.08;;;21.52;;
19889;SDS011;10107;51.198;6.824;2024-02-26T23:58:38;39.03;;;23.40;;
